< < Back
Terminal Aerodrome Forecast


Current Version              Previous Versions:   1  2  3  4  5  6  7  8  9  

Terminal Aerodrome Forecast

632
FTUS42 KFFC 011700
TAFFTY
TAF
KFTY 011720Z 0118/0218 24004KT P6SM SCT050
     FM020100 VRB03KT P6SM SKC
     FM021300 17003KT P6SM BKN030
     FM021500 17004KT P6SM SCT045=

Latest METAR

289
SAUS70 KWBC 020600 RRF
MTRFTY
METAR KFTY 020553Z 00000KT 10SM CLR 17/16 A3004 RMK AO2 SLP164 T01720156
10217 20167 50003


USA.gov is the U.S. government's official web portal to all federal, state and local government web resources and services.